createdAt,value
2023-04-19T00:00:52.882Z,10.10
2023-04-19T00:03:19.603Z,10.12
2023-04-19T00:09:32.712Z,10.13
2023-04-19T00:11:59.099Z,10.12
2023-04-19T00:14:25.538Z,10.09
2023-04-19T00:16:51.951Z,10.15
2023-04-19T00:19:18.339Z,10.12
2023-04-19T00:21:44.717Z,10.11
2023-04-19T00:24:11.112Z,10.12
2023-04-19T00:26:37.414Z,10.09
2023-04-19T00:29:03.892Z,10.08
2023-04-19T00:31:30.346Z,10.08
2023-04-19T00:33:56.988Z,10.07
2023-04-19T00:36:23.571Z,10.09
2023-04-19T00:38:49.884Z,10.07
2023-04-19T00:41:16.239Z,10.02
2023-04-19T00:43:42.681Z,10.09
2023-04-19T00:46:09.591Z,10.07
2023-04-19T00:48:36.412Z,10.06
2023-04-19T00:51:03.908Z,10.05
2023-04-19T00:53:30.691Z,10.03
2023-04-19T00:55:59.702Z,10.03
2023-04-19T00:58:28.145Z,10.00
2023-04-19T01:00:54.517Z,10.01
2023-04-19T01:03:22.122Z,10.02
2023-04-19T01:05:48.908Z,9.99
2023-04-19T01:08:16.495Z,9.99
2023-04-19T01:10:42.881Z,9.99
2023-04-19T01:13:09.295Z,9.96
2023-04-19T01:15:36.567Z,9.97
2023-04-19T01:18:03.081Z,9.94
2023-04-19T01:20:29.519Z,9.93
2023-04-19T01:22:55.948Z,9.92
2023-04-19T01:25:22.460Z,9.94
2023-04-19T01:27:48.831Z,9.86
2023-04-19T01:30:15.369Z,9.97
2023-04-19T01:32:41.763Z,9.94
2023-04-19T01:35:11.014Z,9.97
2023-04-19T01:37:37.453Z,9.97
2023-04-19T01:40:07.081Z,9.98
2023-04-19T01:42:33.396Z,9.99
2023-04-19T01:44:59.880Z,9.98
2023-04-19T01:47:26.333Z,9.96
2023-04-19T01:49:52.689Z,9.94
2023-04-19T01:52:19.093Z,9.95
2023-04-19T01:54:45.531Z,9.89
2023-04-19T01:57:11.890Z,9.90
2023-04-19T01:59:38.304Z,9.84
2023-04-19T02:02:07.893Z,9.86
2023-04-19T02:04:34.568Z,9.89
2023-04-19T02:07:00.904Z,9.87
2023-04-19T02:09:27.212Z,9.85
2023-04-19T02:11:53.514Z,9.86
2023-04-19T02:14:19.841Z,9.84
2023-04-19T02:16:46.231Z,9.86
2023-04-19T02:19:12.638Z,9.85
2023-04-19T02:21:39.013Z,9.84
2023-04-19T02:24:06.195Z,9.82
2023-04-19T02:26:32.552Z,9.85
2023-04-19T02:28:58.899Z,9.82
2023-04-19T02:31:25.358Z,9.81
2023-04-19T02:33:51.792Z,9.78
2023-04-19T02:36:18.151Z,9.80
2023-04-19T02:38:44.481Z,9.78
2023-04-19T02:41:10.783Z,9.78
2023-04-19T02:43:37.114Z,9.80
2023-04-19T02:46:03.904Z,9.80
2023-04-19T02:48:30.427Z,9.78
2023-04-19T02:50:56.796Z,9.75
2023-04-19T02:53:23.134Z,9.73
2023-04-19T02:55:49.836Z,9.73
2023-04-19T02:58:16.176Z,9.75
2023-04-19T03:00:42.539Z,9.72
2023-04-19T03:03:09.788Z,9.64
2023-04-19T03:05:36.179Z,9.65
2023-04-19T03:08:02.552Z,9.63
2023-04-19T03:10:28.956Z,9.63
2023-04-19T03:12:55.483Z,9.59
2023-04-19T03:15:22.170Z,9.69
2023-04-19T03:17:48.567Z,9.68
2023-04-19T03:20:16.941Z,9.66
2023-04-19T03:22:43.286Z,9.67
2023-04-19T03:25:12.324Z,9.67
2023-04-19T03:27:38.974Z,9.62
2023-04-19T03:30:07.089Z,9.68
2023-04-19T03:32:33.444Z,9.68
2023-04-19T03:34:59.785Z,9.58
2023-04-19T03:37:26.141Z,9.53
2023-04-19T03:39:52.556Z,9.50
2023-04-19T03:42:18.975Z,9.51
2023-04-19T03:44:45.477Z,9.48
2023-04-19T03:47:11.901Z,9.43
2023-04-19T03:49:38.244Z,9.37
2023-04-19T03:52:04.738Z,9.39
2023-04-19T03:54:31.057Z,9.41
2023-04-19T03:56:57.389Z,9.41
2023-04-19T03:59:23.750Z,9.35
2023-04-19T04:01:50.169Z,9.43
2023-04-19T04:04:17.046Z,9.41
2023-04-19T04:06:44.305Z,9.35
2023-04-19T04:09:11.020Z,9.30
2023-04-19T04:11:37.408Z,9.36
2023-04-19T04:14:04.315Z,9.25
2023-04-19T04:16:30.730Z,9.24
2023-04-19T04:18:57.183Z,9.25
2023-04-19T04:21:24.581Z,9.16
2023-04-19T04:23:51.474Z,9.12
2023-04-19T04:26:19.944Z,9.13
2023-04-19T04:28:46.324Z,9.10
2023-04-19T04:31:17.881Z,9.07
2023-04-19T04:33:45.808Z,9.05
2023-04-19T04:36:12.241Z,9.02
2023-04-19T04:38:38.579Z,9.12
2023-04-19T04:41:05.886Z,9.14
2023-04-19T04:43:33.395Z,9.03
2023-04-19T04:45:59.890Z,9.02
2023-04-19T04:48:26.449Z,9.10
2023-04-19T04:50:52.786Z,9.10
2023-04-19T04:53:19.328Z,9.04
2023-04-19T04:55:45.739Z,9.04
2023-04-19T04:58:12.052Z,9.06
2023-04-19T05:00:38.476Z,9.07
2023-04-19T05:03:04.987Z,9.19
2023-04-19T05:05:31.667Z,9.09
2023-04-19T05:07:57.987Z,9.07
2023-04-19T05:10:24.471Z,9.06
2023-04-19T05:12:50.887Z,9.09
2023-04-19T05:15:17.368Z,9.13
2023-04-19T05:17:43.770Z,9.18
2023-04-19T05:20:10.666Z,9.22
2023-04-19T05:22:37.425Z,9.27
2023-04-19T05:25:04.494Z,9.31
2023-04-19T05:27:30.829Z,9.43
2023-04-19T05:29:57.231Z,9.39
2023-04-19T05:32:23.734Z,9.43
2023-04-19T05:34:50.126Z,9.45
2023-04-19T05:37:16.543Z,9.50
2023-04-19T05:39:44.478Z,9.55
2023-04-19T05:42:11.182Z,9.58
2023-04-19T05:44:37.606Z,9.62
2023-04-19T05:47:04.063Z,9.72
2023-04-19T05:49:30.382Z,9.71
2023-04-19T05:51:56.999Z,9.70
2023-04-19T05:54:23.664Z,9.79
2023-04-19T05:56:49.999Z,9.82
2023-04-19T05:59:16.445Z,9.97
2023-04-19T06:01:43.056Z,9.95
2023-04-19T06:04:09.585Z,9.98
2023-04-19T06:06:37.833Z,10.00
2023-04-19T06:09:04.345Z,10.07
2023-04-19T06:11:38.972Z,10.14
2023-04-19T06:14:14.299Z,10.27
2023-04-19T06:16:41.497Z,10.36
2023-04-19T06:19:08.077Z,10.54
2023-04-19T06:21:35.057Z,10.66
2023-04-19T06:24:01.785Z,10.75
2023-04-19T06:26:28.172Z,10.80
2023-04-19T06:28:54.558Z,10.84
2023-04-19T06:31:21.070Z,10.93
2023-04-19T06:33:47.517Z,10.90
2023-04-19T06:36:13.883Z,10.91
2023-04-19T06:38:41.605Z,10.93
2023-04-19T06:41:09.071Z,10.96
2023-04-19T06:43:35.574Z,11.06
2023-04-19T06:46:04.412Z,11.15
2023-04-19T06:48:30.888Z,11.16
2023-04-19T06:50:57.304Z,11.02
2023-04-19T06:53:23.780Z,10.95
2023-04-19T06:55:59.742Z,11.00
2023-04-19T06:58:26.760Z,10.98
2023-04-19T07:00:53.792Z,10.94
2023-04-19T07:03:24.706Z,10.93
2023-04-19T07:05:52.709Z,10.94
2023-04-19T07:08:19.112Z,10.90
2023-04-19T07:10:45.619Z,10.90
2023-04-19T07:13:12.072Z,10.86
2023-04-19T07:15:38.467Z,10.86
2023-04-19T07:18:05.257Z,10.79
2023-04-19T07:20:31.590Z,10.84
2023-04-19T07:23:01.170Z,10.86
2023-04-19T07:25:27.885Z,10.83
2023-04-19T07:27:54.833Z,10.88
2023-04-19T07:30:21.381Z,11.00
2023-04-19T07:32:48.212Z,10.90
2023-04-19T07:35:14.736Z,10.91
2023-04-19T07:37:42.107Z,10.93
2023-04-19T07:40:09.109Z,10.92
2023-04-19T07:42:35.443Z,10.87
2023-04-19T07:45:01.981Z,10.87
2023-04-19T07:47:28.473Z,10.94
2023-04-19T07:49:56.168Z,10.99
2023-04-19T07:52:22.580Z,10.89
2023-04-19T07:54:48.989Z,10.90
2023-04-19T07:57:15.329Z,10.95
2023-04-19T07:59:41.652Z,10.99
2023-04-19T08:02:08.110Z,11.03
2023-04-19T08:04:34.892Z,11.18
2023-04-19T08:07:02.167Z,11.11
2023-04-19T08:09:28.548Z,11.19
2023-04-19T08:11:54.980Z,11.11
2023-04-19T08:14:34.701Z,11.11
2023-04-19T08:19:33.913Z,11.36
2023-04-19T08:22:00.309Z,11.18
2023-04-19T08:24:26.867Z,11.22
2023-04-19T08:26:54.160Z,11.42
2023-04-19T08:29:22.044Z,11.51
2023-04-19T08:31:48.721Z,11.49
2023-04-19T08:34:15.223Z,11.38
2023-04-19T08:36:51.611Z,11.40
2023-04-19T08:39:32.232Z,11.35
2023-04-19T08:42:18.241Z,11.31
2023-04-19T08:45:22.753Z,11.51
2023-04-19T08:47:58.825Z,11.57
2023-04-19T08:50:33.303Z,11.53
2023-04-19T08:55:33.820Z,11.71
2023-04-19T08:58:04.191Z,11.80
2023-04-19T09:00:38.584Z,11.89
2023-04-19T09:03:07.867Z,11.93
2023-04-19T09:05:34.529Z,11.84
2023-04-19T09:08:24.813Z,11.98
2023-04-19T09:10:56.529Z,11.96
2023-04-19T09:13:23.027Z,11.78
2023-04-19T09:15:49.800Z,11.95
2023-04-19T09:18:16.322Z,11.95
2023-04-19T09:20:44.581Z,12.03
2023-04-19T09:23:14.021Z,12.16
2023-04-19T09:26:15.156Z,12.10
2023-04-19T09:28:37.424Z,12.17
2023-04-19T09:31:42.666Z,12.27
2023-04-19T09:34:16.987Z,12.38
2023-04-19T09:36:43.875Z,12.48
2023-04-19T09:39:11.136Z,12.60
2023-04-19T09:41:53.826Z,12.54
2023-04-19T09:44:52.923Z,12.67
2023-04-19T09:47:27.087Z,12.69
2023-04-19T09:52:39.972Z,13.10
2023-04-19T09:55:14.430Z,13.18
2023-04-19T09:57:49.158Z,12.91
2023-04-19T10:00:16.044Z,12.95
2023-04-19T10:02:44.699Z,13.17
2023-04-19T10:05:20.460Z,13.25
2023-04-19T10:07:49.895Z,13.10
2023-04-19T10:10:20.671Z,13.44
2023-04-19T10:15:23.331Z,13.97
2023-04-19T10:17:50.212Z,14.10
2023-04-19T10:20:55.290Z,14.39
2023-04-19T10:23:22.818Z,14.33
2023-04-19T10:25:49.398Z,14.63
2023-04-19T10:28:16.769Z,14.83
2023-04-19T10:31:00.914Z,15.00
2023-04-19T10:33:28.723Z,15.01
2023-04-19T10:35:59.313Z,15.08
2023-04-19T10:38:41.328Z,14.81
2023-04-19T10:41:16.475Z,14.77
2023-04-19T10:43:47.894Z,14.58
2023-04-19T10:46:17.304Z,14.43
2023-04-19T10:48:53.257Z,14.24
2023-04-19T10:51:36.753Z,14.22
2023-04-19T10:54:08.182Z,14.31
2023-04-19T10:56:34.573Z,14.16
2023-04-19T10:59:11.412Z,14.09
2023-04-19T11:01:46.483Z,14.21
2023-04-19T11:04:40.497Z,14.58
2023-04-19T11:07:07.855Z,14.65
2023-04-19T11:09:46.016Z,14.71
2023-04-19T11:12:14.408Z,14.36
2023-04-19T11:14:42.982Z,14.46
2023-04-19T11:17:19.411Z,14.81
2023-04-19T11:20:00.251Z,14.90
2023-04-19T11:22:34.152Z,14.76
2023-04-19T11:25:06.816Z,14.73
2023-04-19T11:27:34.146Z,15.06
2023-04-19T11:30:09.225Z,15.03
2023-04-19T11:32:36.472Z,15.06
2023-04-19T11:35:09.850Z,15.23
2023-04-19T11:37:37.577Z,15.35
2023-04-19T11:40:06.212Z,15.59
2023-04-19T11:42:33.444Z,15.41
2023-04-19T11:44:59.932Z,15.72
2023-04-19T11:47:27.324Z,15.61
2023-04-19T11:49:57.085Z,15.79
2023-04-19T11:52:25.470Z,15.80
2023-04-19T11:54:59.163Z,15.71
2023-04-19T11:57:30.874Z,15.75
2023-04-19T12:00:12.254Z,16.17
2023-04-19T12:02:40.248Z,16.19
2023-04-19T12:05:08.753Z,16.06
2023-04-19T12:07:35.424Z,16.29
2023-04-19T12:10:12.097Z,16.47
2023-04-19T12:12:39.195Z,16.51
2023-04-19T12:15:07.063Z,16.66
2023-04-19T12:17:33.429Z,16.57
2023-04-19T12:19:59.897Z,15.96
2023-04-19T12:22:26.333Z,16.23
2023-04-19T12:24:53.859Z,16.22
2023-04-19T12:27:20.245Z,16.14
2023-04-19T12:29:46.607Z,16.51
2023-04-19T12:32:15.616Z,16.54
2023-04-19T12:34:42.574Z,16.89
2023-04-19T12:37:08.978Z,17.20
2023-04-19T12:39:35.529Z,17.31
2023-04-19T12:42:02.339Z,17.35
2023-04-19T12:44:28.743Z,17.22
2023-04-19T12:46:57.356Z,17.19
2023-04-19T12:49:24.325Z,16.97
2023-04-19T12:51:50.715Z,16.83
2023-04-19T12:54:17.257Z,16.69
2023-04-19T12:56:43.742Z,16.54
2023-04-19T12:59:11.370Z,16.58
2023-04-19T13:01:37.864Z,17.20
2023-04-19T13:04:04.608Z,17.14
2023-04-19T13:06:31.322Z,17.31
2023-04-19T13:09:01.130Z,17.62
2023-04-19T13:11:28.334Z,17.64
2023-04-19T13:13:54.820Z,17.51
2023-04-19T13:16:22.359Z,17.26
2023-04-19T13:18:48.849Z,17.26
2023-04-19T13:21:15.312Z,17.41
2023-04-19T13:23:44.237Z,17.57
2023-04-19T13:26:11.068Z,17.87
2023-04-19T13:28:37.517Z,17.71
2023-04-19T13:31:05.020Z,17.41
2023-04-19T13:33:31.518Z,17.86
2023-04-19T13:35:57.950Z,17.76
2023-04-19T13:38:24.912Z,17.90
2023-04-19T13:40:51.406Z,18.05
2023-04-19T13:43:17.980Z,18.08
2023-04-19T13:45:44.326Z,17.45
2023-04-19T13:48:10.802Z,18.05
2023-04-19T13:50:37.224Z,17.69
2023-04-19T13:53:03.580Z,17.51
2023-04-19T13:55:30.054Z,17.66
2023-04-19T13:57:56.384Z,17.76
2023-04-19T14:00:22.809Z,17.96
2023-04-19T14:02:52.044Z,17.84
2023-04-19T14:05:18.945Z,17.99
2023-04-19T14:07:45.342Z,17.71
2023-04-19T14:10:11.652Z,17.44
2023-04-19T14:12:38.009Z,17.62
2023-04-19T14:15:05.237Z,17.69
2023-04-19T14:17:31.619Z,17.71
2023-04-19T14:19:58.027Z,17.64
2023-04-19T14:22:24.379Z,17.73
2023-04-19T14:24:50.790Z,17.35
2023-04-19T14:27:17.174Z,17.43
2023-04-19T14:29:43.476Z,16.97
2023-04-19T14:32:24.473Z,16.84
2023-04-19T14:34:52.551Z,16.74
2023-04-19T14:37:19.255Z,16.93
2023-04-19T14:39:46.302Z,17.27
2023-04-19T14:42:12.745Z,17.18
2023-04-19T14:44:40.169Z,17.16
2023-04-19T14:47:06.803Z,17.23
2023-04-19T14:49:33.199Z,17.21
2023-04-19T14:51:59.564Z,17.38
2023-04-19T14:54:25.884Z,17.31
2023-04-19T14:56:52.810Z,17.32
2023-04-19T14:59:19.127Z,17.31
2023-04-19T15:01:45.539Z,17.40
2023-04-19T15:04:12.101Z,16.91
2023-04-19T15:06:38.548Z,16.72
2023-04-19T15:09:05.259Z,16.67
2023-04-19T15:11:31.693Z,16.50
2023-04-19T15:13:58.000Z,16.19
2023-04-19T15:16:24.567Z,16.33
2023-04-19T15:18:51.743Z,15.85
2023-04-19T15:21:24.374Z,15.72
2023-04-19T15:23:50.789Z,15.76
2023-04-19T15:26:17.086Z,15.67
2023-04-19T15:28:43.436Z,15.74
2023-04-19T15:31:10.326Z,15.91
2023-04-19T15:33:37.546Z,15.65
2023-04-19T15:36:04.458Z,15.67
2023-04-19T15:38:32.238Z,15.80
2023-04-19T15:41:00.244Z,15.89
2023-04-19T15:43:26.704Z,15.96
2023-04-19T15:45:53.160Z,15.59
2023-04-19T15:48:20.769Z,15.91
2023-04-19T15:50:47.283Z,15.80
2023-04-19T15:53:13.995Z,15.75
2023-04-19T15:55:41.363Z,15.74
2023-04-19T15:58:07.781Z,15.65
2023-04-19T16:00:34.147Z,15.71
2023-04-19T16:03:00.698Z,15.53
2023-04-19T16:05:27.477Z,15.38
2023-04-19T16:08:08.291Z,15.61
2023-04-19T16:10:36.011Z,15.62
2023-04-19T16:13:08.409Z,15.75
2023-04-19T16:15:34.768Z,15.48
2023-04-19T16:18:01.260Z,15.38
2023-04-19T16:20:27.785Z,15.47
2023-04-19T16:22:54.187Z,15.30
2023-04-19T16:25:20.662Z,15.05
2023-04-19T16:27:47.094Z,14.88
2023-04-19T16:30:14.838Z,15.23
2023-04-19T16:32:41.797Z,15.13
2023-04-19T16:35:08.953Z,15.02
2023-04-19T16:37:35.917Z,14.98
2023-04-19T16:40:09.049Z,14.92
2023-04-19T16:42:37.062Z,14.57
2023-04-19T16:45:05.088Z,14.50
2023-04-19T16:47:32.096Z,14.26
2023-04-19T16:49:59.049Z,14.17
2023-04-19T16:52:27.314Z,14.02
2023-04-19T16:54:53.841Z,14.19
2023-04-19T16:57:20.712Z,14.05
2023-04-19T16:59:47.689Z,14.02
2023-04-19T17:02:14.325Z,13.92
2023-04-19T17:04:41.194Z,13.82
2023-04-19T17:07:08.720Z,13.82
2023-04-19T17:09:36.101Z,13.77
2023-04-19T17:12:02.771Z,13.65
2023-04-19T17:14:29.551Z,13.73
2023-04-19T17:16:55.972Z,13.54
2023-04-19T17:19:22.313Z,13.17
2023-04-19T17:21:48.666Z,12.98
2023-04-19T17:24:14.995Z,12.98
2023-04-19T17:26:41.345Z,12.88
2023-04-19T17:29:08.809Z,12.94
2023-04-19T17:31:35.424Z,12.81
2023-04-19T17:34:01.944Z,12.77
2023-04-19T17:36:28.819Z,12.64
2023-04-19T17:38:55.234Z,12.54
2023-04-19T17:41:21.600Z,12.52
2023-04-19T17:43:48.109Z,12.41
2023-04-19T17:46:15.038Z,12.43
2023-04-19T17:48:41.767Z,12.49
2023-04-19T17:51:08.267Z,12.48
2023-04-19T17:53:34.627Z,12.41
2023-04-19T17:56:00.990Z,12.21
2023-04-19T17:58:27.348Z,12.20
2023-04-19T18:00:53.929Z,12.14
2023-04-19T18:03:20.699Z,12.21
2023-04-19T18:05:47.311Z,12.14
2023-04-19T18:08:13.778Z,11.98
2023-04-19T18:10:40.167Z,11.91
2023-04-19T18:13:06.492Z,11.89
2023-04-19T18:15:32.853Z,11.96
2023-04-19T18:17:59.212Z,11.80
2023-04-19T18:20:26.007Z,11.70
2023-04-19T18:22:53.319Z,11.70
2023-04-19T18:25:19.867Z,11.63
2023-04-19T18:27:46.270Z,11.62
2023-04-19T18:30:12.913Z,11.58
2023-04-19T18:32:39.349Z,11.43
2023-04-19T18:35:08.880Z,11.47
2023-04-19T18:37:35.732Z,11.35
2023-04-19T18:40:05.368Z,11.35
2023-04-19T18:42:31.697Z,11.20
2023-04-19T18:44:58.163Z,11.11
2023-04-19T18:47:27.743Z,11.25
2023-04-19T18:50:04.383Z,11.13
2023-04-19T18:52:32.071Z,11.08
2023-04-19T18:54:58.767Z,10.99
2023-04-19T18:57:27.419Z,10.91
2023-04-19T18:59:56.195Z,11.00
2023-04-19T19:02:22.765Z,10.78
2023-04-19T19:04:57.038Z,10.74
2023-04-19T19:07:35.606Z,10.70
2023-04-19T19:10:17.011Z,10.68
2023-04-19T19:12:47.324Z,10.61
2023-04-19T19:15:14.337Z,10.52
2023-04-19T19:17:41.024Z,10.48
2023-04-19T19:20:08.118Z,10.45
2023-04-19T19:22:34.866Z,10.26
2023-04-19T19:25:01.420Z,10.23
2023-04-19T19:27:28.050Z,10.31
2023-04-19T19:29:54.560Z,10.22
2023-04-19T19:32:21.206Z,10.14
2023-04-19T19:37:17.342Z,10.05
2023-04-19T19:39:44.879Z,10.10
2023-04-19T19:42:15.798Z,9.97
2023-04-19T19:44:42.319Z,9.89
2023-04-19T19:47:10.592Z,9.74
2023-04-19T19:49:51.984Z,9.62
2023-04-19T19:52:23.810Z,9.56
2023-04-19T19:54:50.151Z,9.66
2023-04-19T19:59:51.570Z,9.60
2023-04-19T20:02:22.384Z,9.41
2023-04-19T20:04:49.309Z,9.41
2023-04-19T20:09:45.499Z,9.31
2023-04-19T20:12:13.204Z,9.33
2023-04-19T20:14:39.873Z,9.37
2023-04-19T20:17:06.692Z,9.33
2023-04-19T20:19:33.041Z,9.30
2023-04-19T20:22:00.448Z,9.34
2023-04-19T20:24:26.908Z,9.25
2023-04-19T20:26:53.265Z,9.26
2023-04-19T20:29:19.578Z,9.26
2023-04-19T20:31:46.012Z,9.07
2023-04-19T20:34:12.399Z,9.07
2023-04-19T20:36:40.263Z,8.98
2023-04-19T20:39:09.433Z,8.94
2023-04-19T20:41:36.083Z,8.91
2023-04-19T20:44:02.982Z,8.85
2023-04-19T20:46:29.389Z,8.86
2023-04-19T20:48:56.234Z,8.80
2023-04-19T20:51:22.580Z,8.78
2023-04-19T20:53:49.046Z,8.72
2023-04-19T20:56:15.431Z,8.76
2023-04-19T20:58:41.816Z,8.74
2023-04-19T21:01:08.447Z,8.68
2023-04-19T21:03:35.077Z,8.68
2023-04-19T21:06:01.537Z,8.57
2023-04-19T21:08:27.907Z,8.55
2023-04-19T21:10:54.343Z,8.52
2023-04-19T21:13:20.714Z,8.39
2023-04-19T21:15:47.156Z,8.43
2023-04-19T21:18:13.583Z,8.41
2023-04-19T21:20:40.454Z,8.38
2023-04-19T21:23:07.069Z,8.39
2023-04-19T21:25:33.431Z,8.34
2023-04-19T21:27:59.778Z,8.34
2023-04-19T21:30:26.328Z,8.29
2023-04-19T21:32:52.765Z,8.21
2023-04-19T21:35:19.488Z,8.14
2023-04-19T21:37:45.878Z,8.05
2023-04-19T21:40:12.444Z,8.06
2023-04-19T21:42:38.790Z,8.03
2023-04-19T21:45:06.734Z,8.03
2023-04-19T21:47:33.150Z,7.87
2023-04-19T21:49:59.489Z,7.95
2023-04-19T21:52:25.796Z,7.97
2023-04-19T21:54:52.195Z,7.93
2023-04-19T21:57:21.918Z,7.76
2023-04-19T21:59:48.348Z,7.71
2023-04-19T22:02:14.779Z,7.71
2023-04-19T22:04:41.458Z,7.66
2023-04-19T22:07:08.102Z,7.53
2023-04-19T22:09:34.437Z,7.33
2023-04-19T22:12:01.005Z,7.29
2023-04-19T22:14:27.799Z,7.47
2023-04-19T22:16:54.891Z,7.48
2023-04-19T22:19:24.325Z,7.52
2023-04-19T22:21:50.991Z,7.31
2023-04-19T22:24:17.304Z,7.25
2023-04-19T22:26:43.640Z,7.16
2023-04-19T22:29:09.991Z,7.05
2023-04-19T22:31:36.416Z,7.05
2023-04-19T22:34:03.241Z,7.06
2023-04-19T22:36:30.409Z,6.97
2023-04-19T22:38:56.943Z,7.00
2023-04-19T22:41:23.271Z,7.00
2023-04-19T22:43:49.618Z,7.03
2023-04-19T22:46:16.187Z,7.08
2023-04-19T22:48:42.588Z,6.94
2023-04-19T22:51:09.479Z,6.92
2023-04-19T22:53:37.169Z,6.79
2023-04-19T22:56:04.154Z,6.78
2023-04-19T22:58:30.490Z,6.68
2023-04-19T23:00:56.950Z,6.80
2023-04-19T23:03:23.409Z,6.75
2023-04-19T23:05:49.756Z,6.71
2023-04-19T23:08:16.169Z,6.71
2023-04-19T23:10:43.453Z,6.63
2023-04-19T23:13:15.630Z,6.61
2023-04-19T23:15:42.149Z,6.60
2023-04-19T23:18:09.581Z,6.47
2023-04-19T23:20:36.358Z,6.51
2023-04-19T23:23:02.841Z,6.47
2023-04-19T23:25:29.248Z,6.43
2023-04-19T23:27:55.763Z,6.45
2023-04-19T23:30:22.245Z,6.40
2023-04-19T23:32:48.671Z,6.32
2023-04-19T23:35:15.237Z,6.31
2023-04-19T23:37:41.586Z,6.29
2023-04-19T23:40:09.151Z,6.20
2023-04-19T23:42:38.171Z,6.22
2023-04-19T23:45:06.518Z,6.14
2023-04-19T23:47:33.586Z,6.25
2023-04-19T23:50:00.407Z,6.33
2023-04-19T23:52:27.430Z,6.17
2023-04-19T23:54:53.803Z,6.09
2023-04-19T23:57:20.268Z,6.13
2023-04-19T23:59:46.629Z,6.02
